Time;durP1;ratioP1;P1;durP2;ratioP2;P2;SDS_P1;SDS_P2;PMS_P1;PMS_P2;Temp;Humidity;BMP_temperature;BMP_pressure;BME280_temperature;BME280_humidity;BME280_pressure;Samples;Min_cycle;Max_cycle;Signal;HPM_P1;HPM_P2
2023/11/18 00:00:19;;;;;;;65.50;27.70;;;;;;;;;;2608380;54;20438;-73
2023/11/18 00:02:46;;;;;;;66.37;30.73;;;;;;;;;;2609552;54;20500;-72
2023/11/18 00:05:13;;;;;;;69.33;29.27;;;;;;;;;;2607964;54;20474;-73
2023/11/18 00:07:39;;;;;;;65.03;28.10;;;;;;;;;;2608975;46;20437;-73
2023/11/18 00:10:06;;;;;;;62.40;29.00;;;;;;;;;;2608934;47;20402;-73
2023/11/18 00:12:35;;;;;;;68.77;28.97;;;;;;;;;;2609196;54;20439;-73
2023/11/18 00:15:05;;;;;;;58.27;26.30;;;;;;;;;;2609604;54;20383;-73
2023/11/18 00:17:31;;;;;;;51.03;27.73;;;;;;;;;;2609840;54;20376;-73
2023/11/18 00:19:58;;;;;;;62.57;28.90;;;;;;;;;;2608687;46;20424;-73
2023/11/18 00:22:24;;;;;;;67.43;25.60;;;;;;;;;;2609020;54;20449;-74
2023/11/18 00:24:50;;;;;;;53.80;26.97;;;;;;;;;;2610096;54;20387;-73
2023/11/18 00:27:16;;;;;;;49.97;25.77;;;;;;;;;;2609656;54;20512;-73
2023/11/18 00:29:44;;;;;;;54.67;26.93;;;;;;;;;;2608962;54;20424;-73
2023/11/18 00:32:10;;;;;;;53.00;27.03;;;;;;;;;;2609109;54;21178;-73
2023/11/18 00:34:36;;;;;;;47.67;25.30;;;;;;;;;;2609014;54;20385;-73
2023/11/18 00:37:02;;;;;;;50.37;26.00;;;;;;;;;;2609403;54;20420;-73
2023/11/18 00:39:29;;;;;;;59.37;24.33;;;;;;;;;;2611444;47;20416;-74
2023/11/18 00:41:56;;;;;;;54.40;25.47;;;;;;;;;;2611970;54;20422;-74
2023/11/18 00:44:23;;;;;;;54.63;25.60;;;;;;;;;;2612190;54;20414;-75
2023/11/18 00:46:50;;;;;;;49.70;23.07;;;;;;;;;;2610843;54;21341;-75
2023/11/18 00:49:17;;;;;;;43.63;22.80;;;;;;;;;;2610689;54;20420;-73
2023/11/18 00:51:44;;;;;;;48.17;24.20;;;;;;;;;;2611053;39;20790;-74
2023/11/18 00:54:11;;;;;;;48.70;25.07;;;;;;;;;;2611389;54;20398;-73
2023/11/18 00:56:37;;;;;;;43.87;21.17;;;;;;;;;;2610795;46;20422;-74
2023/11/18 00:59:03;;;;;;;47.47;23.07;;;;;;;;;;2611354;54;20415;-73
2023/11/18 01:01:29;;;;;;;53.73;27.33;;;;;;;;;;2611182;54;20895;-75
2023/11/18 01:03:59;;;;;;;49.13;22.97;;;;;;;;;;2611033;54;20439;-73
2023/11/18 01:06:26;;;;;;;42.00;23.17;;;;;;;;;;2610445;54;20973;-74
2023/11/18 01:08:52;;;;;;;48.67;23.83;;;;;;;;;;2611370;54;20485;-74
2023/11/18 01:11:19;;;;;;;52.43;23.53;;;;;;;;;;2611128;54;20450;-74
2023/11/18 01:13:55;;;;;;;41.93;22.43;;;;;;;;;;2609617;54;20402;-73
2023/11/18 01:16:21;;;;;;;50.60;21.57;;;;;;;;;;2609114;47;20453;-73
2023/11/18 01:18:48;;;;;;;41.07;21.37;;;;;;;;;;2608768;54;20526;-73
2023/11/18 01:21:17;;;;;;;50.27;22.20;;;;;;;;;;2610047;54;20387;-73
2023/11/18 01:23:44;;;;;;;46.23;21.03;;;;;;;;;;2609116;39;20834;-74
2023/11/18 01:26:12;;;;;;;48.23;22.10;;;;;;;;;;2609635;47;20432;-74
2023/11/18 01:28:43;;;;;;;45.93;23.23;;;;;;;;;;2608583;47;20414;-74
2023/11/18 01:31:09;;;;;;;41.20;22.77;;;;;;;;;;2608801;54;20512;-75
2023/11/18 01:33:42;;;;;;;43.37;20.53;;;;;;;;;;2608773;54;20427;-73
2023/11/18 01:36:09;;;;;;;39.47;21.27;;;;;;;;;;2608522;47;20579;-72
2023/11/18 01:38:38;;;;;;;35.17;20.90;;;;;;;;;;2607532;48;20428;-74
2023/11/18 01:41:09;;;;;;;47.03;21.40;;;;;;;;;;2609687;54;20990;-74
2023/11/18 01:43:35;;;;;;;48.10;22.73;;;;;;;;;;2609348;54;21109;-74
2023/11/18 01:46:10;;;;;;;41.67;21.80;;;;;;;;;;2610300;54;20403;-73
2023/11/18 01:48:37;;;;;;;43.07;23.17;;;;;;;;;;2608192;54;20460;-72
2023/11/18 01:51:05;;;;;;;35.93;19.10;;;;;;;;;;2608063;54;20450;-72
2023/11/18 01:53:33;;;;;;;46.03;20.67;;;;;;;;;;2609277;47;20575;-72
2023/11/18 01:55:59;;;;;;;41.67;21.87;;;;;;;;;;2609829;47;20418;-72
2023/11/18 01:58:25;;;;;;;42.10;21.67;;;;;;;;;;2609568;54;20422;-71
2023/11/18 02:00:52;;;;;;;40.60;21.07;;;;;;;;;;2610716;54;21000;-72
2023/11/18 02:03:18;;;;;;;41.20;20.00;;;;;;;;;;2611482;54;20533;-72
2023/11/18 02:05:44;;;;;;;35.70;21.70;;;;;;;;;;2611166;54;20383;-72
2023/11/18 02:08:13;;;;;;;35.63;19.60;;;;;;;;;;2611213;46;20451;-73
2023/11/18 02:10:47;;;;;;;40.00;20.90;;;;;;;;;;2610979;54;20419;-72
2023/11/18 02:13:16;;;;;;;40.60;20.07;;;;;;;;;;2611387;54;20483;-72
2023/11/18 02:15:42;;;;;;;34.93;20.47;;;;;;;;;;2611445;54;20449;-72
2023/11/18 02:18:09;;;;;;;44.93;20.60;;;;;;;;;;2610915;54;20399;-73
2023/11/18 02:20:36;;;;;;;41.67;20.00;;;;;;;;;;2610224;54;20424;-73
2023/11/18 02:23:03;;;;;;;35.13;19.70;;;;;;;;;;2611335;47;20423;-73
2023/11/18 02:25:30;;;;;;;40.30;20.50;;;;;;;;;;2610811;47;20412;-72
2023/11/18 02:27:56;;;;;;;35.33;18.80;;;;;;;;;;2611372;54;20978;-73
2023/11/18 02:30:22;;;;;;;33.07;19.57;;;;;;;;;;2610932;47;20407;-73
2023/11/18 02:32:56;;;;;;;38.30;21.30;;;;;;;;;;2610735;54;20409;-73
2023/11/18 02:35:48;;;;;;;33.53;21.00;;;;;;;;;;2611253;54;20406;-71
2023/11/18 02:38:15;;;;;;;39.77;22.43;;;;;;;;;;2611530;54;20429;-73
2023/11/18 02:40:43;;;;;;;27.90;14.57;;;;;;;;;;2612043;54;20424;-72
2023/11/18 02:43:11;;;;;;;34.93;17.77;;;;;;;;;;2612078;39;20759;-73
2023/11/18 02:45:41;;;;;;;40.03;20.50;;;;;;;;;;2611833;54;20461;-72
2023/11/18 02:48:07;;;;;;;36.57;19.03;;;;;;;;;;2611612;54;20440;-72
2023/11/18 02:50:35;;;;;;;35.20;18.77;;;;;;;;;;2610625;54;20506;-74
2023/11/18 02:53:02;;;;;;;38.03;19.20;;;;;;;;;;2611419;54;20415;-72
2023/11/18 02:55:28;;;;;;;40.13;21.57;;;;;;;;;;2612057;54;21360;-72
2023/11/18 02:57:56;;;;;;;45.70;20.33;;;;;;;;;;2611640;54;20427;-72
2023/11/18 03:00:23;;;;;;;33.63;18.63;;;;;;;;;;2611538;54;20454;-72
2023/11/18 03:02:51;;;;;;;38.33;21.23;;;;;;;;;;2609360;54;20441;-72
2023/11/18 03:05:17;;;;;;;39.03;20.53;;;;;;;;;;2609537;54;22576;-73
2023/11/18 03:07:49;;;;;;;44.13;20.17;;;;;;;;;;2610549;54;20904;-74
2023/11/18 03:10:20;;;;;;;38.27;21.40;;;;;;;;;;2610313;47;20415;-73
2023/11/18 03:12:50;;;;;;;34.47;20.27;;;;;;;;;;2610178;54;20993;-73
2023/11/18 03:15:17;;;;;;;33.50;19.83;;;;;;;;;;2611063;54;20423;-73
2023/11/18 03:17:48;;;;;;;32.50;19.33;;;;;;;;;;2611427;54;20423;-73
2023/11/18 03:20:16;;;;;;;31.93;18.97;;;;;;;;;;2611215;54;20419;-72
2023/11/18 03:22:49;;;;;;;35.33;18.83;;;;;;;;;;2610333;47;20467;-72
2023/11/18 03:25:19;;;;;;;30.57;19.57;;;;;;;;;;2610735;54;20417;-72
2023/11/18 03:27:45;;;;;;;35.90;19.50;;;;;;;;;;2611383;54;20987;-72
2023/11/18 03:30:12;;;;;;;33.37;21.03;;;;;;;;;;2610454;47;20560;-73
2023/11/18 03:32:39;;;;;;;33.67;19.63;;;;;;;;;;2611239;54;20432;-73
2023/11/18 03:35:08;;;;;;;34.60;20.43;;;;;;;;;;2611185;54;20539;-73
2023/11/18 03:37:34;;;;;;;40.33;20.87;;;;;;;;;;2610693;54;20484;-73
2023/11/18 03:40:02;;;;;;;35.37;18.33;;;;;;;;;;2613631;54;20428;-73
2023/11/18 03:42:29;;;;;;;32.23;18.77;;;;;;;;;;2611177;47;20528;-73
2023/11/18 03:44:55;;;;;;;29.80;19.20;;;;;;;;;;2611341;46;20562;-73
2023/11/18 03:47:23;;;;;;;32.97;18.97;;;;;;;;;;2611065;54;20498;-73
2023/11/18 03:49:50;;;;;;;30.70;19.67;;;;;;;;;;2610150;54;20380;-73
2023/11/18 03:52:16;;;;;;;29.83;18.47;;;;;;;;;;2609861;54;20496;-71
2023/11/18 03:54:42;;;;;;;31.00;19.37;;;;;;;;;;2610355;54;20423;-73
2023/11/18 03:57:08;;;;;;;34.90;17.27;;;;;;;;;;2610167;54;20436;-72
2023/11/18 03:59:34;;;;;;;33.13;17.37;;;;;;;;;;2610067;54;20411;-73
2023/11/18 04:02:01;;;;;;;27.17;17.77;;;;;;;;;;2609924;54;20943;-73
2023/11/18 04:04:27;;;;;;;31.43;18.00;;;;;;;;;;2609632;39;20697;-73
2023/11/18 04:06:53;;;;;;;30.00;16.97;;;;;;;;;;2609138;54;20471;-72
2023/11/18 04:09:19;;;;;;;36.43;19.97;;;;;;;;;;2610864;39;20787;-73
2023/11/18 04:11:45;;;;;;;36.27;19.67;;;;;;;;;;2610225;54;20376;-74
2023/11/18 04:14:12;;;;;;;34.23;19.33;;;;;;;;;;2610037;47;20433;-74
2023/11/18 04:16:38;;;;;;;32.20;19.10;;;;;;;;;;2610162;54;20455;-73
2023/11/18 04:19:05;;;;;;;33.07;19.90;;;;;;;;;;2610074;54;20425;-73
2023/11/18 04:21:31;;;;;;;35.20;18.77;;;;;;;;;;2609451;47;20499;-73
2023/11/18 04:23:57;;;;;;;40.77;20.50;;;;;;;;;;2610051;54;20487;-73
2023/11/18 04:26:24;;;;;;;29.70;17.20;;;;;;;;;;2610499;54;20498;-73
2023/11/18 04:28:50;;;;;;;34.57;18.10;;;;;;;;;;2610604;54;20412;-73
2023/11/18 04:31:16;;;;;;;35.33;18.57;;;;;;;;;;2610111;54;20467;-74
2023/11/18 04:33:42;;;;;;;30.17;16.30;;;;;;;;;;2610539;54;20411;-73
2023/11/18 04:36:10;;;;;;;32.27;17.20;;;;;;;;;;2611099;54;20441;-73
2023/11/18 04:38:36;;;;;;;34.27;19.87;;;;;;;;;;2610904;54;20511;-74
2023/11/18 04:41:03;;;;;;;28.10;18.33;;;;;;;;;;2611351;54;20423;-73
2023/11/18 04:43:29;;;;;;;26.57;17.03;;;;;;;;;;2610130;54;20412;-73
2023/11/18 04:45:56;;;;;;;23.30;15.73;;;;;;;;;;2611124;54;20926;-74
2023/11/18 04:48:22;;;;;;;28.57;17.33;;;;;;;;;;2611001;54;20430;-74
2023/11/18 04:50:48;;;;;;;27.03;15.60;;;;;;;;;;2610552;54;20423;-73
2023/11/18 04:53:14;;;;;;;27.13;17.00;;;;;;;;;;2610810;54;21064;-74
2023/11/18 04:55:40;;;;;;;30.70;18.40;;;;;;;;;;2610399;47;20450;-73
2023/11/18 04:58:08;;;;;;;28.83;17.57;;;;;;;;;;2611183;46;20515;-74
2023/11/18 05:00:35;;;;;;;36.33;17.13;;;;;;;;;;2610069;39;21464;-72
2023/11/18 05:03:03;;;;;;;31.30;16.33;;;;;;;;;;2610411;54;20390;-72
2023/11/18 05:05:29;;;;;;;32.10;17.67;;;;;;;;;;2610933;54;20394;-72
2023/11/18 05:07:55;;;;;;;31.67;18.10;;;;;;;;;;2610587;54;20403;-72
2023/11/18 05:10:21;;;;;;;26.87;17.53;;;;;;;;;;2610720;54;20399;-72
2023/11/18 05:12:55;;;;;;;31.13;17.60;;;;;;;;;;2609645;54;20419;-72
2023/11/18 05:15:24;;;;;;;27.00;16.10;;;;;;;;;;2609889;54;20377;-72
2023/11/18 05:17:50;;;;;;;34.60;18.07;;;;;;;;;;2610208;54;20391;-72
2023/11/18 05:20:17;;;;;;;27.43;18.13;;;;;;;;;;2610117;39;20819;-73
2023/11/18 05:22:43;;;;;;;26.50;16.40;;;;;;;;;;2609334;54;20490;-73
2023/11/18 05:25:10;;;;;;;30.97;18.50;;;;;;;;;;2611774;54;20400;-73
2023/11/18 05:27:36;;;;;;;33.50;17.70;;;;;;;;;;2611718;39;20799;-72
2023/11/18 05:30:05;;;;;;;29.63;18.30;;;;;;;;;;2610497;54;20423;-73
2023/11/18 05:32:33;;;;;;;32.17;17.17;;;;;;;;;;2613468;39;21224;-73
2023/11/18 05:35:00;;;;;;;33.63;19.97;;;;;;;;;;2612898;54;20410;-73
2023/11/18 05:37:29;;;;;;;29.73;16.33;;;;;;;;;;2612154;47;20427;-72
2023/11/18 05:40:06;;;;;;;29.67;19.33;;;;;;;;;;2612133;54;20428;-73
2023/11/18 05:42:32;;;;;;;32.13;16.20;;;;;;;;;;2612100;54;20423;-73
2023/11/18 05:45:01;;;;;;;24.20;16.30;;;;;;;;;;2612626;54;20972;-74
2023/11/18 05:47:27;;;;;;;27.87;17.17;;;;;;;;;;2613951;39;20809;-74
2023/11/18 05:49:53;;;;;;;31.87;14.70;;;;;;;;;;2613235;54;20435;-74
2023/11/18 05:52:22;;;;;;;34.10;18.30;;;;;;;;;;2614767;54;20958;-74
2023/11/18 05:54:49;;;;;;;37.20;18.30;;;;;;;;;;2614286;54;20435;-74
2023/11/18 05:57:18;;;;;;;29.30;16.90;;;;;;;;;;2614478;54;20438;-74
2023/11/18 05:59:46;;;;;;;39.20;19.13;;;;;;;;;;2614070;54;20396;-74
2023/11/18 06:02:17;;;;;;;37.67;17.27;;;;;;;;;;2613209;54;20424;-74
2023/11/18 06:04:43;;;;;;;30.13;17.30;;;;;;;;;;2613123;54;20459;-73
2023/11/18 06:07:13;;;;;;;29.10;15.67;;;;;;;;;;2613070;54;20428;-74
2023/11/18 06:09:39;;;;;;;28.63;17.03;;;;;;;;;;2611594;54;20478;-74
2023/11/18 06:12:08;;;;;;;29.37;18.00;;;;;;;;;;2609891;47;20419;-74
2023/11/18 06:14:35;;;;;;;38.97;19.70;;;;;;;;;;2610903;54;20383;-74
2023/11/18 06:17:01;;;;;;;23.30;14.83;;;;;;;;;;2609900;51;20402;-74
2023/11/18 06:19:27;;;;;;;26.67;16.70;;;;;;;;;;2609553;47;20527;-74
2023/11/18 06:21:53;;;;;;;28.23;17.10;;;;;;;;;;2610222;46;20431;-75
2023/11/18 06:24:21;;;;;;;29.37;18.70;;;;;;;;;;2609492;39;20866;-74
2023/11/18 06:26:49;;;;;;;42.63;20.23;;;;;;;;;;2609391;54;20417;-74
2023/11/18 06:29:15;;;;;;;37.70;21.00;;;;;;;;;;2608985;54;20450;-75
2023/11/18 06:31:42;;;;;;;32.67;19.60;;;;;;;;;;2609728;54;20422;-73
2023/11/18 06:34:09;;;;;;;36.90;21.33;;;;;;;;;;2606796;47;20421;-74
2023/11/18 06:36:35;;;;;;;33.50;17.13;;;;;;;;;;2608581;54;21481;-73
2023/11/18 06:39:01;;;;;;;26.73;16.23;;;;;;;;;;2609330;51;20981;-74
2023/11/18 06:41:33;;;;;;;37.63;20.70;;;;;;;;;;2609839;54;20431;-73
2023/11/18 06:44:03;;;;;;;35.60;19.50;;;;;;;;;;2610152;54;20448;-74
2023/11/18 06:46:33;;;;;;;30.83;19.73;;;;;;;;;;2610060;54;20435;-74
2023/11/18 06:48:59;;;;;;;31.50;17.90;;;;;;;;;;2610865;54;20471;-74
2023/11/18 06:51:27;;;;;;;32.37;18.90;;;;;;;;;;2609977;54;20425;-75
2023/11/18 06:53:56;;;;;;;31.23;19.30;;;;;;;;;;2610157;51;20400;-74
2023/11/18 06:56:25;;;;;;;41.50;21.83;;;;;;;;;;2609784;54;20404;-74
2023/11/18 06:58:52;;;;;;;35.30;19.70;;;;;;;;;;2609772;54;20384;-74
2023/11/18 07:01:19;;;;;;;29.77;17.43;;;;;;;;;;2609805;46;20946;-74
2023/11/18 07:03:48;;;;;;;35.63;19.63;;;;;;;;;;2610395;54;20482;-76
2023/11/18 07:06:21;;;;;;;33.17;18.47;;;;;;;;;;2610843;54;20421;-78
2023/11/18 07:08:49;;;;;;;29.27;17.40;;;;;;;;;;2611620;54;20396;-73
2023/11/18 07:11:15;;;;;;;42.27;18.83;;;;;;;;;;2610724;54;20519;-75
2023/11/18 07:13:41;;;;;;;32.30;18.50;;;;;;;;;;2610828;46;20404;-74
2023/11/18 07:16:08;;;;;;;31.57;20.00;;;;;;;;;;2609793;54;20876;-73
2023/11/18 07:18:35;;;;;;;33.30;17.67;;;;;;;;;;2612016;39;20841;-72
2023/11/18 07:21:03;;;;;;;28.27;17.33;;;;;;;;;;2611658;54;20391;-74
2023/11/18 07:23:29;;;;;;;36.10;18.47;;;;;;;;;;2611953;54;20419;-73
2023/11/18 07:25:56;;;;;;;32.60;17.13;;;;;;;;;;2611402;54;20408;-73
2023/11/18 07:28:22;;;;;;;38.83;19.43;;;;;;;;;;2611195;54;20405;-73
2023/11/18 07:30:48;;;;;;;35.80;18.20;;;;;;;;;;2609431;54;20424;-73
2023/11/18 07:33:15;;;;;;;30.87;17.57;;;;;;;;;;2609097;54;20467;-74
2023/11/18 07:35:41;;;;;;;31.10;17.90;;;;;;;;;;2611708;39;21071;-74
2023/11/18 07:38:07;;;;;;;37.53;17.73;;;;;;;;;;2610592;47;20413;-73
2023/11/18 07:40:45;;;;;;;30.70;18.83;;;;;;;;;;2613809;54;20416;-75
2023/11/18 07:43:21;;;;;;;38.93;21.20;;;;;;;;;;2613169;47;20478;-75
2023/11/18 07:45:53;;;;;;;30.17;18.17;;;;;;;;;;2612177;47;20395;-75
2023/11/18 07:48:20;;;;;;;30.50;16.50;;;;;;;;;;2613128;54;20433;-76
2023/11/18 07:50:48;;;;;;;34.80;18.80;;;;;;;;;;2613409;54;20421;-75
2023/11/18 07:53:14;;;;;;;30.33;17.27;;;;;;;;;;2612929;47;20399;-75
2023/11/18 07:55:41;;;;;;;31.37;17.13;;;;;;;;;;2613250;54;21035;-75
2023/11/18 07:58:12;;;;;;;29.53;15.10;;;;;;;;;;2614130;54;20412;-75
2023/11/18 08:00:42;;;;;;;33.50;17.60;;;;;;;;;;2613439;47;20410;-75
2023/11/18 08:03:11;;;;;;;35.43;17.40;;;;;;;;;;2613653;54;20474;-75
2023/11/18 08:05:39;;;;;;;31.03;16.53;;;;;;;;;;2614381;47;20854;-74
2023/11/18 08:08:07;;;;;;;27.97;17.07;;;;;;;;;;2613554;51;20397;-74
2023/11/18 08:10:37;;;;;;;31.77;16.93;;;;;;;;;;2614022;54;20407;-76
2023/11/18 08:13:06;;;;;;;38.33;17.00;;;;;;;;;;2613805;47;20483;-75
2023/11/18 08:15:34;;;;;;;29.10;15.13;;;;;;;;;;2614257;54;20409;-76
2023/11/18 08:18:00;;;;;;;25.63;16.37;;;;;;;;;;2613303;47;20420;-76
2023/11/18 08:20:26;;;;;;;28.47;15.57;;;;;;;;;;2613703;54;20963;-74
2023/11/18 08:22:53;;;;;;;31.43;16.73;;;;;;;;;;2613284;54;20539;-75
2023/11/18 08:25:20;;;;;;;26.07;16.50;;;;;;;;;;2613801;54;20433;-74
2023/11/18 08:27:46;;;;;;;29.20;16.20;;;;;;;;;;2612353;54;20421;-75
2023/11/18 08:30:12;;;;;;;31.30;15.40;;;;;;;;;;2612771;47;20420;-76
2023/11/18 08:32:40;;;;;;;26.60;17.20;;;;;;;;;;2613132;54;20413;-76
2023/11/18 08:35:09;;;;;;;27.33;14.53;;;;;;;;;;2612549;54;20450;-75
2023/11/18 08:37:37;;;;;;;28.40;15.77;;;;;;;;;;2612568;54;20458;-74
2023/11/18 08:40:14;;;;;;;35.37;18.97;;;;;;;;;;2613160;54;20433;-75
2023/11/18 08:42:50;;;;;;;24.03;13.20;;;;;;;;;;2612507;47;20952;-75
2023/11/18 08:45:29;;;;;;;23.67;14.30;;;;;;;;;;2612543;47;20521;-75
2023/11/18 08:48:06;;;;;;;25.43;14.00;;;;;;;;;;2613156;47;20432;-75
2023/11/18 08:50:33;;;;;;;23.63;12.10;;;;;;;;;;2613102;39;20805;-74
2023/11/18 08:52:59;;;;;;;28.07;13.23;;;;;;;;;;2612327;54;20409;-74
2023/11/18 08:55:39;;;;;;;18.37;11.83;;;;;;;;;;2612731;54;20426;-74
2023/11/18 08:58:15;;;;;;;21.53;11.80;;;;;;;;;;2612210;54;20481;-74
2023/11/18 09:03:36;;;;;;;19.90;11.77;;;;;;;;;;2610422;54;20380;-74
2023/11/18 09:06:06;;;;;;;20.17;12.43;;;;;;;;;;2610893;54;20428;-74
2023/11/18 09:08:36;;;;;;;17.37;11.33;;;;;;;;;;2609175;54;20422;-74
2023/11/18 09:11:04;;;;;;;17.97;10.30;;;;;;;;;;2611370;46;20459;-74
2023/11/18 09:13:31;;;;;;;19.10;11.77;;;;;;;;;;2611287;54;20424;-74
2023/11/18 09:16:00;;;;;;;25.97;11.77;;;;;;;;;;2611753;51;20441;-74
2023/11/18 09:18:34;;;;;;;19.77;11.43;;;;;;;;;;2612037;47;21075;-75
2023/11/18 09:21:01;;;;;;;23.73;12.93;;;;;;;;;;2612674;46;20938;-73
2023/11/18 09:23:27;;;;;;;17.73;12.33;;;;;;;;;;2612067;54;20466;-76
2023/11/18 09:25:56;;;;;;;17.57;10.03;;;;;;;;;;2611950;54;20412;-75
2023/11/18 09:28:24;;;;;;;14.47;9.40;;;;;;;;;;2612008;54;20537;-74
2023/11/18 09:30:53;;;;;;;18.37;10.17;;;;;;;;;;2612507;54;20421;-74
2023/11/18 09:33:34;;;;;;;18.93;11.47;;;;;;;;;;2612346;54;20553;-75
2023/11/18 09:36:03;;;;;;;16.70;10.03;;;;;;;;;;2611655;54;20418;-74
2023/11/18 09:38:29;;;;;;;12.77;7.80;;;;;;;;;;2612225;54;20542;-74
2023/11/18 09:40:57;;;;;;;17.70;10.03;;;;;;;;;;2614136;54;20419;-75
2023/11/18 09:43:26;;;;;;;19.50;9.70;;;;;;;;;;2614221;54;20553;-75
2023/11/18 09:45:55;;;;;;;19.40;8.80;;;;;;;;;;2613842;54;20433;-75
2023/11/18 09:48:25;;;;;;;19.30;10.03;;;;;;;;;;2613444;54;20950;-74
2023/11/18 09:50:52;;;;;;;15.57;10.17;;;;;;;;;;2613488;46;20491;-74
2023/11/18 09:53:19;;;;;;;12.23;8.07;;;;;;;;;;2613956;54;20423;-74
2023/11/18 09:55:59;;;;;;;16.80;7.47;;;;;;;;;;2614776;54;20982;-75
2023/11/18 09:58:31;;;;;;;17.67;9.10;;;;;;;;;;2614603;54;20966;-75
2023/11/18 10:01:02;;;;;;;16.53;10.13;;;;;;;;;;2613994;39;20805;-74
2023/11/18 10:03:29;;;;;;;12.90;7.97;;;;;;;;;;2613866;54;20950;-75
2023/11/18 10:05:56;;;;;;;13.00;9.20;;;;;;;;;;2612541;54;20456;-76
2023/11/18 10:08:25;;;;;;;12.00;7.13;;;;;;;;;;2612189;47;20430;-75
2023/11/18 10:11:04;;;;;;;9.23;6.13;;;;;;;;;;2614289;46;21040;-77
2023/11/18 10:13:31;;;;;;;10.60;7.00;;;;;;;;;;2615264;54;20497;-75
2023/11/18 10:15:59;;;;;;;9.70;7.27;;;;;;;;;;2615269;54;20430;-75
2023/11/18 10:18:28;;;;;;;15.57;9.00;;;;;;;;;;2615120;54;20444;-74
2023/11/18 10:20:54;;;;;;;11.00;8.43;;;;;;;;;;2614491;54;20517;-74
2023/11/18 10:23:21;;;;;;;13.50;8.03;;;;;;;;;;2614367;54;20450;-74
2023/11/18 10:26:00;;;;;;;12.60;7.80;;;;;;;;;;2614532;39;20777;-75
2023/11/18 10:28:32;;;;;;;14.63;7.90;;;;;;;;;;2613583;54;20433;-76
2023/11/18 10:31:04;;;;;;;11.37;7.70;;;;;;;;;;2614115;54;20463;-75
2023/11/18 10:33:35;;;;;;;12.60;7.40;;;;;;;;;;2612996;47;20444;-75
2023/11/18 10:36:06;;;;;;;11.50;7.63;;;;;;;;;;2612673;54;21010;-75
2023/11/18 10:38:36;;;;;;;7.90;6.77;;;;;;;;;;2614593;54;20517;-75
2023/11/18 10:41:02;;;;;;;12.23;8.03;;;;;;;;;;2614187;54;20425;-76
2023/11/18 10:43:28;;;;;;;18.33;8.77;;;;;;;;;;2613314;47;21118;-75
2023/11/18 10:46:13;;;;;;;12.40;8.60;;;;;;;;;;2613580;47;20457;-75
2023/11/18 10:48:43;;;;;;;16.40;8.13;;;;;;;;;;2614265;54;20517;-75
2023/11/18 10:51:12;;;;;;;17.37;10.27;;;;;;;;;;2613627;47;20423;-76
2023/11/18 10:53:42;;;;;;;9.17;5.80;;;;;;;;;;2613796;54;20416;-74
2023/11/18 10:56:19;;;;;;;7.80;5.77;;;;;;;;;;2613976;54;20513;-75
2023/11/18 10:58:46;;;;;;;12.93;7.13;;;;;;;;;;2613938;54;20399;-76
2023/11/18 11:01:12;;;;;;;12.30;7.83;;;;;;;;;;2613149;51;21032;-76
2023/11/18 11:03:57;;;;;;;13.43;7.23;;;;;;;;;;2612996;54;20516;-76
2023/11/18 11:06:24;;;;;;;10.23;7.30;;;;;;;;;;2613682;54;20421;-76
2023/11/18 11:08:51;;;;;;;9.37;6.80;;;;;;;;;;2614069;54;20423;-74
2023/11/18 11:11:21;;;;;;;9.17;7.20;;;;;;;;;;2614442;54;20446;-74
2023/11/18 11:13:50;;;;;;;9.00;7.10;;;;;;;;;;2615196;54;20422;-74
2023/11/18 11:16:23;;;;;;;10.60;6.03;;;;;;;;;;2615624;54;20440;-74
2023/11/18 11:18:54;;;;;;;7.00;5.70;;;;;;;;;;2614592;54;20429;-75
2023/11/18 11:21:29;;;;;;;12.30;6.03;;;;;;;;;;2615080;54;20429;-75
2023/11/18 11:23:58;;;;;;;9.43;6.07;;;;;;;;;;2614837;47;20552;-76
2023/11/18 11:26:44;;;;;;;9.60;7.50;;;;;;;;;;2615502;54;20457;-74
2023/11/18 11:29:28;;;;;;;8.93;5.90;;;;;;;;;;2614676;47;20422;-74
2023/11/18 11:32:16;;;;;;;7.00;4.70;;;;;;;;;;2614798;47;20430;-74
2023/11/18 11:34:48;;;;;;;12.10;4.53;;;;;;;;;;2614125;51;20434;-75
2023/11/18 11:37:15;;;;;;;9.47;6.37;;;;;;;;;;2613886;39;20876;-74
2023/11/18 11:39:46;;;;;;;7.07;5.97;;;;;;;;;;2613592;54;20422;-74
2023/11/18 11:42:24;;;;;;;10.30;5.93;;;;;;;;;;2615092;54;20425;-74
2023/11/18 11:44:55;;;;;;;6.50;4.30;;;;;;;;;;2613857;54;20513;-74
2023/11/18 11:47:23;;;;;;;9.93;5.80;;;;;;;;;;2610916;47;20430;-75
2023/11/18 11:49:55;;;;;;;9.30;5.07;;;;;;;;;;2612084;51;20433;-75
2023/11/18 11:52:31;;;;;;;11.30;6.37;;;;;;;;;;2613397;47;20491;-73
2023/11/18 11:55:13;;;;;;;9.80;5.43;;;;;;;;;;2614080;54;20424;-74
2023/11/18 11:57:41;;;;;;;6.47;5.60;;;;;;;;;;2614416;39;20884;-74
2023/11/18 12:00:15;;;;;;;10.93;5.20;;;;;;;;;;2612283;54;20459;-75
2023/11/18 12:02:54;;;;;;;8.13;4.93;;;;;;;;;;2611499;39;20939;-75
2023/11/18 12:05:25;;;;;;;8.13;5.10;;;;;;;;;;2611016;54;20437;-75
2023/11/18 12:07:54;;;;;;;9.17;5.03;;;;;;;;;;2610942;54;21140;-75
2023/11/18 12:10:21;;;;;;;6.03;4.60;;;;;;;;;;2611057;54;20437;-74
2023/11/18 12:12:48;;;;;;;7.90;5.43;;;;;;;;;;2611483;54;20429;-74
2023/11/18 12:15:20;;;;;;;6.87;4.57;;;;;;;;;;2611773;54;20405;-75
2023/11/18 12:17:52;;;;;;;9.80;5.97;;;;;;;;;;2611344;54;20418;-75
2023/11/18 12:20:56;;;;;;;12.23;5.60;;;;;;;;;;2612968;47;20414;-75
2023/11/18 12:23:25;;;;;;;8.17;5.27;;;;;;;;;;2614743;54;20514;-74
2023/11/18 12:25:54;;;;;;;5.60;4.30;;;;;;;;;;2614756;54;20415;-75
2023/11/18 12:28:26;;;;;;;10.20;6.77;;;;;;;;;;2613921;54;20426;-75
2023/11/18 12:30:55;;;;;;;10.50;5.70;;;;;;;;;;2613264;47;20510;-75
2023/11/18 12:33:28;;;;;;;7.53;5.63;;;;;;;;;;2613542;39;21339;-75
2023/11/18 12:36:09;;;;;;;8.43;6.10;;;;;;;;;;2612894;54;20527;-75
2023/11/18 12:39:03;;;;;;;5.80;4.13;;;;;;;;;;2612995;47;20460;-75
2023/11/18 12:41:29;;;;;;;13.60;7.20;;;;;;;;;;2613132;54;20429;-75
2023/11/18 12:44:15;;;;;;;7.47;6.47;;;;;;;;;;2613668;54;20402;-74
2023/11/18 12:46:56;;;;;;;11.37;5.93;;;;;;;;;;2614143;54;20437;-75
2023/11/18 12:49:25;;;;;;;9.87;5.70;;;;;;;;;;2613940;54;20536;-74
2023/11/18 12:51:56;;;;;;;6.10;5.03;;;;;;;;;;2613961;54;20952;-76
2023/11/18 12:54:30;;;;;;;5.67;5.00;;;;;;;;;;2614287;54;20506;-75
2023/11/18 12:56:56;;;;;;;8.80;6.10;;;;;;;;;;2614657;39;20876;-75
2023/11/18 12:59:23;;;;;;;6.43;5.10;;;;;;;;;;2610552;54;20411;-74
2023/11/18 13:02:02;;;;;;;12.53;5.70;;;;;;;;;;2613229;54;20536;-75
2023/11/18 13:04:28;;;;;;;6.97;5.47;;;;;;;;;;2613971;54;20405;-75
2023/11/18 13:06:57;;;;;;;8.37;5.67;;;;;;;;;;2613937;54;20408;-74
2023/11/18 13:09:32;;;;;;;8.53;6.50;;;;;;;;;;2611865;46;20419;-74
2023/11/18 13:12:03;;;;;;;13.53;5.10;;;;;;;;;;2611305;54;20410;-75
2023/11/18 13:14:30;;;;;;;9.00;5.93;;;;;;;;;;2612804;54;20374;-74
2023/11/18 13:16:57;;;;;;;8.23;5.03;;;;;;;;;;2613020;54;20422;-75
2023/11/18 13:19:27;;;;;;;6.00;4.17;;;;;;;;;;2612152;47;20461;-75
2023/11/18 13:22:00;;;;;;;8.70;4.30;;;;;;;;;;2611902;54;20942;-74
2023/11/18 13:24:29;;;;;;;8.40;6.10;;;;;;;;;;2612726;54;20465;-75
2023/11/18 13:26:56;;;;;;;8.47;5.37;;;;;;;;;;2611788;39;20959;-75
2023/11/18 13:29:24;;;;;;;10.13;5.87;;;;;;;;;;2612133;54;20442;-75
2023/11/18 13:31:51;;;;;;;11.70;5.87;;;;;;;;;;2611218;54;20430;-73
2023/11/18 13:34:20;;;;;;;11.90;5.00;;;;;;;;;;2611434;54;20407;-76
2023/11/18 13:36:50;;;;;;;6.40;4.77;;;;;;;;;;2611290;54;21228;-73
2023/11/18 13:39:20;;;;;;;7.23;5.00;;;;;;;;;;2611244;54;20545;-73
2023/11/18 13:41:49;;;;;;;7.80;5.13;;;;;;;;;;2611986;54;20413;-73
2023/11/18 13:44:37;;;;;;;6.23;4.47;;;;;;;;;;2612278;54;20438;-73
2023/11/18 13:47:05;;;;;;;8.57;5.33;;;;;;;;;;2612318;54;20519;-75
2023/11/18 13:49:34;;;;;;;8.17;5.30;;;;;;;;;;2611978;54;20436;-73
2023/11/18 13:52:01;;;;;;;8.20;5.00;;;;;;;;;;2613199;39;20753;-74
2023/11/18 13:54:31;;;;;;;10.87;6.90;;;;;;;;;;2611285;54;20409;-74
2023/11/18 13:56:59;;;;;;;6.53;4.40;;;;;;;;;;2611493;54;20489;-74
2023/11/18 13:59:26;;;;;;;5.40;4.27;;;;;;;;;;2611779;39;20806;-74
2023/11/18 14:01:52;;;;;;;7.33;5.47;;;;;;;;;;2611774;54;20901;-73
2023/11/18 14:04:18;;;;;;;7.37;5.27;;;;;;;;;;2610942;54;20405;-74
2023/11/18 14:06:46;;;;;;;9.50;4.77;;;;;;;;;;2609738;54;20418;-75
2023/11/18 14:09:12;;;;;;;9.17;4.70;;;;;;;;;;2610518;54;20430;-73
2023/11/18 14:11:38;;;;;;;6.13;4.30;;;;;;;;;;2611846;39;20928;-75
2023/11/18 14:14:04;;;;;;;9.93;4.83;;;;;;;;;;2610918;54;20563;-74
2023/11/18 14:16:30;;;;;;;9.23;4.43;;;;;;;;;;2611132;54;20457;-74
2023/11/18 14:18:56;;;;;;;4.70;3.20;;;;;;;;;;2611159;54;20430;-73
2023/11/18 14:21:25;;;;;;;6.30;4.20;;;;;;;;;;2612332;47;20626;-74
2023/11/18 14:23:51;;;;;;;11.07;4.63;;;;;;;;;;2612203;39;20927;-74
2023/11/18 14:26:18;;;;;;;5.87;3.83;;;;;;;;;;2613058;54;20532;-75
2023/11/18 14:28:44;;;;;;;6.83;4.00;;;;;;;;;;2613029;54;20398;-75
2023/11/18 14:31:11;;;;;;;6.10;3.73;;;;;;;;;;2612174;46;20477;-74
2023/11/18 14:33:38;;;;;;;12.10;3.37;;;;;;;;;;2613036;39;20835;-73
2023/11/18 14:36:05;;;;;;;6.87;4.33;;;;;;;;;;2613109;54;20426;-74